Time;durP1;ratioP1;P1;durP2;ratioP2;P2;SDS_P1;SDS_P2;PMS_P1;PMS_P2;Temp;Humidity;BMP_temperature;BMP_pressure;BME280_temperature;BME280_humidity;BME280_pressure;Samples;Min_cycle;Max_cycle;Signal;HPM_P1;HPM_P2
2022/02/17 00:00:06;;;;;;;0.50;0.50;;;15.40;69.40;;;;;;5050029;28;20462;-50
2022/02/17 00:02:32;;;;;;;0.50;0.40;;;15.50;69.20;;;;;;5049502;28;20862;-50
2022/02/17 00:04:57;;;;;;;0.53;0.53;;;15.60;68.60;;;;;;5047638;28;20427;-50
2022/02/17 00:07:23;;;;;;;1.53;0.50;;;15.50;67.90;;;;;;5041846;28;20474;-53
2022/02/17 00:09:49;;;;;;;0.60;0.60;;;15.40;67.60;;;;;;5043931;28;20200;-53
2022/02/17 00:12:14;;;;;;;0.50;0.50;;;15.50;67.80;;;;;;5050575;28;20193;-49
2022/02/17 00:14:40;;;;;;;0.60;0.60;;;15.50;68.00;;;;;;5044026;28;20188;-53
2022/02/17 00:17:05;;;;;;;0.50;0.50;;;15.50;66.80;;;;;;5044830;28;20200;-51
2022/02/17 00:19:31;;;;;;;0.60;0.50;;;15.60;67.10;;;;;;5046923;28;20267;-53
2022/02/17 00:21:57;;;;;;;0.50;0.40;;;15.60;66.60;;;;;;5046067;28;20197;-49
2022/02/17 00:24:22;;;;;;;0.50;0.50;;;15.70;66.50;;;;;;5049620;28;20189;-52
2022/02/17 00:26:48;;;;;;;0.43;0.40;;;15.60;65.50;;;;;;5045186;28;20212;-53
2022/02/17 00:29:13;;;;;;;0.50;0.40;;;15.60;65.90;;;;;;5038318;28;20224;-51
2022/02/17 00:31:39;;;;;;;0.87;0.60;;;15.40;65.50;;;;;;5039952;28;20243;-52
2022/02/17 00:34:05;;;;;;;0.50;0.40;;;15.50;65.40;;;;;;5046911;28;20538;-53
2022/02/17 00:36:31;;;;;;;0.50;0.50;;;15.70;64.70;;;;;;5042588;28;20443;-52
2022/02/17 00:38:57;;;;;;;0.50;0.40;;;15.60;64.40;;;;;;5044252;28;21075;-51
2022/02/17 00:41:24;;;;;;;0.40;0.40;;;15.50;63.80;;;;;;5043126;28;20268;-52
2022/02/17 00:43:50;;;;;;;0.50;0.40;;;15.40;64.40;;;;;;5047970;28;20432;-50
2022/02/17 00:46:16;;;;;;;0.50;0.50;;;15.50;64.40;;;;;;5049153;28;20439;-51
2022/02/17 00:48:42;;;;;;;0.60;0.40;;;15.40;64.40;;;;;;5045652;28;20492;-50
2022/02/17 00:51:07;;;;;;;0.70;0.60;;;15.40;63.80;;;;;;5047398;28;20659;-50
2022/02/17 00:53:33;;;;;;;0.60;0.50;;;15.60;64.00;;;;;;5048023;28;20190;-51
2022/02/17 00:55:59;;;;;;;1.63;0.40;;;15.70;63.30;;;;;;5049848;28;20203;-53
2022/02/17 00:58:24;;;;;;;0.50;0.50;;;15.40;63.40;;;;;;5049497;28;20200;-52
2022/02/17 01:00:50;;;;;;;0.50;0.40;;;15.40;64.10;;;;;;5045835;28;20197;-51
2022/02/17 01:03:15;;;;;;;0.60;0.60;;;15.40;64.00;;;;;;5044291;28;20224;-52
2022/02/17 01:05:41;;;;;;;0.50;0.40;;;15.60;64.20;;;;;;5046991;28;20206;-50
2022/02/17 01:08:08;;;;;;;0.50;0.40;;;15.50;64.40;;;;;;5044029;28;20679;-53
2022/02/17 01:10:33;;;;;;;0.50;0.50;;;15.40;66.20;;;;;;5041114;28;20197;-51
2022/02/17 01:13:00;;;;;;;6.80;0.60;;;15.40;66.30;;;;;;5040058;28;20435;-51
2022/02/17 01:15:26;;;;;;;0.50;0.40;;;15.30;67.60;;;;;;5047444;28;20243;-52
2022/02/17 01:17:51;;;;;;;0.60;0.60;;;15.10;67.50;;;;;;5041720;28;20446;-53
2022/02/17 01:20:17;;;;;;;0.50;0.40;;;15.20;68.60;;;;;;5048653;28;20188;-52
2022/02/17 01:22:45;;;;;;;0.60;0.50;;;15.40;68.90;;;;;;5040983;28;20192;-52
2022/02/17 01:25:12;;;;;;;0.47;0.47;;;15.50;68.30;;;;;;5042183;28;20497;-52
2022/02/17 01:27:38;;;;;;;1.10;0.40;;;15.40;67.90;;;;;;5048697;28;20499;-52
2022/02/17 01:30:05;;;;;;;0.50;0.40;;;15.50;68.20;;;;;;5043266;28;20487;-53
2022/02/17 01:32:31;;;;;;;0.90;0.50;;;15.20;67.90;;;;;;5039846;28;20444;-51
2022/02/17 01:34:57;;;;;;;0.70;0.50;;;15.00;68.30;;;;;;5036847;28;21029;-52
2022/02/17 01:37:23;;;;;;;0.50;0.50;;;15.00;68.60;;;;;;5041275;28;20192;-52
2022/02/17 01:39:49;;;;;;;0.50;0.50;;;14.90;68.70;;;;;;5039735;28;20806;-52
2022/02/17 01:42:15;;;;;;;0.50;0.50;;;14.90;69.20;;;;;;5040148;28;20431;-53
2022/02/17 01:44:40;;;;;;;0.60;0.60;;;15.00;68.70;;;;;;5047320;28;20444;-52
2022/02/17 01:47:08;;;;;;;0.50;0.40;;;15.20;68.20;;;;;;5044950;28;20258;-52
2022/02/17 01:49:33;;;;;;;0.40;0.40;;;15.20;68.10;;;;;;5045212;28;20722;-51
2022/02/17 01:51:59;;;;;;;0.80;0.60;;;15.10;68.50;;;;;;5044068;28;20489;-49
2022/02/17 01:54:25;;;;;;;0.50;0.50;;;15.00;68.70;;;;;;5042041;28;20246;-50
2022/02/17 01:56:51;;;;;;;0.73;0.50;;;14.90;68.80;;;;;;5045559;28;20196;-52
2022/02/17 01:59:16;;;;;;;0.50;0.50;;;14.80;69.80;;;;;;5046781;28;20275;-51
2022/02/17 02:01:42;;;;;;;0.50;0.50;;;14.80;71.00;;;;;;5045444;28;20199;-53
2022/02/17 02:04:08;;;;;;;0.50;0.40;;;14.80;70.70;;;;;;5039019;28;20931;-53
2022/02/17 02:06:33;;;;;;;0.40;0.40;;;14.80;71.20;;;;;;5043033;28;20837;-50
2022/02/17 02:09:01;;;;;;;0.50;0.50;;;14.90;71.40;;;;;;5046200;28;20229;-50
2022/02/17 02:11:27;;;;;;;0.50;0.40;;;14.90;71.10;;;;;;5047061;28;20192;-50
2022/02/17 02:13:53;;;;;;;0.90;0.70;;;14.70;70.90;;;;;;5042925;28;20513;-49
2022/02/17 02:16:18;;;;;;;0.50;0.40;;;14.70;71.30;;;;;;5035381;28;20522;-52
2022/02/17 02:18:44;;;;;;;0.50;0.40;;;14.70;71.80;;;;;;5045136;28;20312;-50
2022/02/17 02:21:09;;;;;;;0.57;0.50;;;14.50;72.10;;;;;;5038648;28;20206;-51
2022/02/17 02:23:37;;;;;;;1.23;0.50;;;14.40;72.40;;;;;;5035559;28;20201;-49
2022/02/17 02:26:03;;;;;;;0.80;0.40;;;14.40;73.10;;;;;;5040544;28;20591;-52
2022/02/17 02:28:31;;;;;;;0.50;0.47;;;14.50;73.30;;;;;;5037559;28;20573;-50
2022/02/17 02:30:57;;;;;;;0.50;0.40;;;14.60;73.60;;;;;;5045940;28;20489;-53
2022/02/17 02:33:24;;;;;;;1.00;0.40;;;14.60;72.90;;;;;;5042366;28;20813;-52
2022/02/17 02:35:51;;;;;;;0.60;0.40;;;14.60;72.40;;;;;;5039885;28;20443;-51
2022/02/17 02:38:17;;;;;;;0.50;0.40;;;14.60;73.10;;;;;;5039435;28;20436;-50
2022/02/17 02:40:43;;;;;;;0.50;0.50;;;14.70;73.20;;;;;;5044608;28;20438;-50
2022/02/17 02:43:09;;;;;;;0.40;0.40;;;14.70;73.30;;;;;;5042169;28;20276;-50
2022/02/17 02:45:35;;;;;;;0.50;0.40;;;14.60;73.60;;;;;;5041154;28;20192;-50
2022/02/17 02:48:10;;;;;;;0.50;0.40;;;14.50;74.10;;;;;;5043490;28;20483;-50
2022/02/17 02:50:38;;;;;;;1.50;0.50;;;14.30;73.90;;;;;;5044298;28;22255;-49
2022/02/17 02:53:04;;;;;;;0.50;0.50;;;14.40;74.20;;;;;;5046119;28;20454;-52
2022/02/17 02:55:30;;;;;;;0.50;0.40;;;14.50;73.80;;;;;;5043392;28;20546;-49
2022/02/17 02:57:58;;;;;;;0.50;0.40;;;14.50;73.40;;;;;;5039087;28;21724;-50
2022/02/17 03:00:24;;;;;;;0.40;0.40;;;14.60;73.50;;;;;;5045901;28;20435;-50
2022/02/17 03:02:49;;;;;;;1.43;0.57;;;14.50;73.30;;;;;;5047381;28;20795;-50
2022/02/17 03:05:15;;;;;;;0.60;0.60;;;14.60;73.30;;;;;;5046248;28;20431;-50
2022/02/17 03:07:41;;;;;;;0.50;0.50;;;14.70;73.00;;;;;;5041484;28;20228;-49
2022/02/17 03:10:07;;;;;;;0.50;0.50;;;14.50;73.10;;;;;;5043482;28;20263;-51
2022/02/17 03:12:36;;;;;;;0.50;0.40;;;14.40;73.20;;;;;;5041942;28;20451;-50
2022/02/17 03:15:03;;;;;;;0.53;0.50;;;14.50;73.50;;;;;;5040358;28;20816;-50
2022/02/17 03:17:29;;;;;;;0.67;0.50;;;14.50;73.30;;;;;;5040056;28;20545;-50
2022/02/17 03:19:55;;;;;;;1.70;0.70;;;14.50;72.90;;;;;;5041702;28;20927;-51
2022/02/17 03:22:20;;;;;;;0.63;0.50;;;14.60;72.60;;;;;;5047600;28;20648;-50
2022/02/17 03:24:46;;;;;;;0.80;0.50;;;14.40;72.40;;;;;;5043818;28;20197;-49
2022/02/17 03:27:12;;;;;;;0.60;0.40;;;14.50;72.90;;;;;;5043583;28;20216;-49
2022/02/17 03:29:37;;;;;;;0.43;0.40;;;14.40;73.10;;;;;;5043666;28;20228;-49
2022/02/17 03:32:03;;;;;;;0.60;0.60;;;14.30;73.50;;;;;;5044181;28;20192;-49
2022/02/17 03:34:29;;;;;;;0.50;0.40;;;14.40;73.40;;;;;;5044437;28;20213;-49
2022/02/17 03:36:54;;;;;;;0.50;0.50;;;14.40;72.90;;;;;;5047913;28;20438;-52
2022/02/17 03:39:20;;;;;;;1.27;0.60;;;14.30;73.00;;;;;;5048659;28;20275;-49
2022/02/17 03:41:47;;;;;;;0.90;0.50;;;14.30;72.80;;;;;;5047847;28;20197;-49
2022/02/17 03:44:13;;;;;;;0.50;0.50;;;14.40;73.00;;;;;;5044111;28;20250;-50
2022/02/17 03:46:39;;;;;;;0.57;0.50;;;14.30;72.90;;;;;;5052005;28;20823;-49
2022/02/17 03:49:04;;;;;;;0.43;0.40;;;14.50;73.40;;;;;;5047644;28;20494;-51
2022/02/17 03:51:30;;;;;;;0.87;0.87;;;14.60;72.80;;;;;;5042511;28;20204;-50
2022/02/17 03:53:55;;;;;;;1.57;0.70;;;14.50;72.60;;;;;;5041359;28;20605;-50
2022/02/17 03:56:21;;;;;;;0.70;0.70;;;14.50;73.00;;;;;;5049806;28;20254;-51
2022/02/17 03:59:02;;;;;;;0.60;0.57;;;14.70;72.70;;;;;;5048949;28;20644;-53
2022/02/17 04:01:35;;;;;;;0.50;0.50;;;14.70;73.00;;;;;;5047834;28;20195;-50
2022/02/17 04:04:02;;;;;;;0.50;0.43;;;14.60;72.90;;;;;;5037559;28;20436;-53
2022/02/17 04:06:29;;;;;;;0.83;0.50;;;14.80;72.80;;;;;;5039895;28;20462;-50
2022/02/17 04:08:54;;;;;;;0.80;0.50;;;14.70;72.80;;;;;;5041962;28;20495;-51
2022/02/17 04:11:20;;;;;;;0.57;0.50;;;14.60;73.20;;;;;;5039689;28;20443;-50
2022/02/17 04:13:46;;;;;;;0.50;0.50;;;14.60;73.00;;;;;;5045474;28;20196;-53
2022/02/17 04:16:12;;;;;;;0.60;0.57;;;14.70;72.80;;;;;;5038292;28;20450;-52
2022/02/17 04:18:39;;;;;;;0.70;0.60;;;14.60;73.20;;;;;;5030228;28;20444;-50
2022/02/17 04:21:05;;;;;;;0.70;0.53;;;14.80;73.50;;;;;;5036613;28;20447;-53
2022/02/17 04:23:31;;;;;;;1.50;0.53;;;14.90;73.00;;;;;;5044920;28;20552;-52
2022/02/17 04:25:56;;;;;;;0.60;0.50;;;14.80;72.70;;;;;;5043033;28;20601;-53
2022/02/17 04:28:22;;;;;;;0.50;0.40;;;14.90;73.00;;;;;;5045009;28;20498;-52
2022/02/17 04:30:48;;;;;;;0.50;0.50;;;14.80;72.50;;;;;;5044690;28;20237;-53
2022/02/17 04:33:13;;;;;;;0.80;0.60;;;14.80;72.40;;;;;;5045418;28;20552;-52
2022/02/17 04:35:39;;;;;;;0.40;0.40;;;14.80;72.30;;;;;;5046261;28;20193;-53
2022/02/17 04:38:04;;;;;;;0.80;0.50;;;14.70;72.00;;;;;;5046098;28;20192;-52
2022/02/17 04:43:14;;;;;;;0.70;0.50;;;14.70;73.20;;;;;;5044120;28;20971;-55
2022/02/17 04:45:40;;;;;;;0.60;0.60;;;14.50;74.90;;;;;;5038033;28;20431;-52
2022/02/17 04:48:06;;;;;;;0.60;0.50;;;14.70;75.40;;;;;;5041703;28;20228;-51
2022/02/17 04:50:32;;;;;;;0.60;0.60;;;14.70;75.30;;;;;;5046008;28;20200;-53
2022/02/17 04:52:58;;;;;;;1.23;0.50;;;14.80;74.30;;;;;;5045501;28;20451;-51
2022/02/17 04:55:24;;;;;;;0.93;0.50;;;15.00;74.40;;;;;;5039869;28;20520;-50
2022/02/17 04:57:50;;;;;;;1.90;0.60;;;15.10;73.60;;;;;;5037976;28;20196;-52
2022/02/17 05:00:16;;;;;;;0.60;0.50;;;15.00;73.30;;;;;;5044146;28;20439;-53
2022/02/17 05:02:42;;;;;;;1.20;0.60;;;15.10;73.10;;;;;;5040534;28;20680;-51
2022/02/17 05:05:07;;;;;;;1.20;0.60;;;15.30;72.60;;;;;;5046341;28;20310;-51
2022/02/17 05:07:33;;;;;;;0.50;0.40;;;15.10;71.70;;;;;;5043335;28;22713;-53
2022/02/17 05:09:59;;;;;;;0.70;0.70;;;15.10;72.80;;;;;;5036228;28;20455;-53
2022/02/17 05:12:25;;;;;;;0.60;0.60;;;15.10;72.80;;;;;;5045316;28;20185;-53
2022/02/17 05:14:50;;;;;;;0.60;0.50;;;15.10;72.70;;;;;;5042887;28;20254;-50
2022/02/17 05:17:17;;;;;;;0.50;0.40;;;15.10;72.90;;;;;;5041369;28;20205;-53
2022/02/17 05:19:43;;;;;;;1.03;0.50;;;15.30;73.20;;;;;;5044961;28;20308;-52
2022/02/17 05:22:08;;;;;;;2.00;0.50;;;15.50;72.40;;;;;;5044110;28;20559;-52
2022/02/17 05:24:34;;;;;;;0.70;0.40;;;15.30;72.00;;;;;;5038026;28;20458;-50
2022/02/17 05:27:00;;;;;;;0.70;0.50;;;15.40;72.40;;;;;;5046120;28;20199;-50
2022/02/17 05:29:25;;;;;;;0.60;0.60;;;15.40;71.80;;;;;;5044665;28;20204;-52
2022/02/17 05:31:51;;;;;;;0.73;0.70;;;15.20;72.00;;;;;;5047525;28;20200;-53
2022/02/17 05:34:18;;;;;;;0.50;0.50;;;15.20;71.80;;;;;;5043590;28;20192;-50
2022/02/17 05:36:44;;;;;;;0.40;0.40;;;15.10;70.70;;;;;;5047112;28;20200;-49
2022/02/17 05:39:09;;;;;;;0.60;0.50;;;15.00;70.30;;;;;;5040517;28;20872;-52
2022/02/17 05:41:35;;;;;;;0.63;0.50;;;14.90;69.70;;;;;;5037746;28;20443;-53
2022/02/17 05:44:02;;;;;;;0.70;0.60;;;14.90;69.90;;;;;;5039433;28;20656;-50
2022/02/17 05:46:28;;;;;;;0.70;0.50;;;14.90;70.70;;;;;;5046052;28;20199;-52
2022/02/17 05:48:53;;;;;;;0.70;0.40;;;14.70;73.20;;;;;;5048106;28;20486;-50
2022/02/17 05:51:19;;;;;;;1.20;0.50;;;14.70;75.30;;;;;;5042616;28;20484;-49
2022/02/17 05:53:46;;;;;;;0.70;0.50;;;14.60;76.20;;;;;;5039442;28;20205;-49
2022/02/17 05:56:12;;;;;;;1.83;0.90;;;14.60;76.20;;;;;;5043833;28;20199;-51
2022/02/17 05:58:38;;;;;;;2.00;0.80;;;14.60;75.50;;;;;;5040391;28;20819;-49
2022/02/17 06:01:04;;;;;;;3.20;0.90;;;14.30;73.40;;;;;;5044563;28;20224;-50
2022/02/17 06:03:30;;;;;;;5.30;1.10;;;14.10;73.30;;;;;;5046890;28;20216;-50
2022/02/17 06:05:55;;;;;;;1.47;0.93;;;14.10;72.90;;;;;;5046312;28;20486;-50
2022/02/17 06:08:21;;;;;;;4.43;1.00;;;14.20;72.00;;;;;;5044915;28;20654;-50
2022/02/17 06:10:48;;;;;;;1.93;1.10;;;13.90;71.60;;;;;;5039329;28;20198;-50
2022/02/17 06:13:14;;;;;;;3.20;1.47;;;13.90;71.70;;;;;;5038123;28;20591;-51
2022/02/17 06:15:39;;;;;;;3.53;1.03;;;13.90;71.80;;;;;;5040988;28;20444;-52
2022/02/17 06:18:06;;;;;;;4.40;1.20;;;13.90;70.80;;;;;;5038075;28;20703;-49
2022/02/17 06:20:31;;;;;;;2.90;1.43;;;13.90;71.00;;;;;;5034961;28;20203;-50
2022/02/17 06:22:57;;;;;;;2.83;1.33;;;13.80;71.20;;;;;;5037003;28;20797;-49
2022/02/17 06:25:23;;;;;;;5.33;0.90;;;13.90;72.20;;;;;;5043258;28;20189;-49
2022/02/17 06:27:49;;;;;;;2.97;0.97;;;13.80;71.60;;;;;;5047136;28;20228;-49
2022/02/17 06:30:15;;;;;;;6.87;1.37;;;13.80;71.70;;;;;;5042026;28;21921;-53
2022/02/17 06:32:49;;;;;;;1.60;1.10;;;13.90;70.90;;;;;;5041328;28;20562;-49
2022/02/17 06:35:20;;;;;;;2.70;1.03;;;13.80;70.80;;;;;;5044196;28;20483;-50
2022/02/17 06:37:46;;;;;;;2.13;1.10;;;14.00;70.60;;;;;;5044104;28;20458;-49
2022/02/17 06:40:13;;;;;;;5.80;1.47;;;13.90;69.40;;;;;;5048647;28;20447;-50
2022/02/17 06:42:38;;;;;;;3.50;1.20;;;14.20;69.80;;;;;;5049380;28;20435;-49
2022/02/17 06:45:04;;;;;;;3.80;1.20;;;14.20;67.70;;;;;;5050057;28;20512;-49
2022/02/17 06:47:30;;;;;;;5.33;1.30;;;14.00;66.90;;;;;;5042626;28;20319;-52
2022/02/17 06:49:55;;;;;;;4.43;1.40;;;13.80;65.80;;;;;;5049067;28;20522;-50
2022/02/17 06:52:22;;;;;;;2.00;0.90;;;13.90;66.00;;;;;;5044180;28;20196;-49
2022/02/17 06:54:48;;;;;;;3.63;1.20;;;13.90;65.80;;;;;;5048479;28;20192;-50
2022/02/17 06:57:21;;;;;;;5.60;2.00;;;13.60;64.30;;;;;;5034790;28;20454;-50
2022/02/17 06:59:47;;;;;;;2.47;1.40;;;13.50;64.80;;;;;;5045239;28;20852;-51
2022/02/17 07:02:13;;;;;;;5.43;1.60;;;13.50;65.50;;;;;;5045593;28;20434;-50
2022/02/17 07:04:39;;;;;;;2.87;1.30;;;13.50;65.80;;;;;;5046324;28;20439;-49
2022/02/17 07:07:05;;;;;;;2.53;1.50;;;13.50;65.40;;;;;;5050271;28;20442;-52
2022/02/17 07:09:31;;;;;;;3.97;1.40;;;13.70;66.10;;;;;;5042485;28;20439;-50
2022/02/17 07:11:57;;;;;;;5.33;1.80;;;13.80;65.40;;;;;;5048546;28;20201;-53
2022/02/17 07:14:25;;;;;;;5.17;1.60;;;14.00;65.10;;;;;;5046699;28;20542;-50
2022/02/17 07:16:57;;;;;;;5.03;1.30;;;13.60;64.50;;;;;;5049291;28;20679;-50
2022/02/17 07:19:23;;;;;;;5.47;2.00;;;13.90;64.30;;;;;;5039879;28;20439;-53
2022/02/17 07:21:50;;;;;;;4.00;1.30;;;13.90;62.80;;;;;;5045237;28;20435;-49
2022/02/17 07:24:17;;;;;;;3.60;1.40;;;13.70;61.30;;;;;;5048747;28;20867;-53
2022/02/17 07:26:43;;;;;;;6.47;1.70;;;13.70;60.60;;;;;;5041884;28;20753;-53
2022/02/17 07:29:09;;;;;;;8.00;1.83;;;13.60;60.30;;;;;;5040946;28;20493;-53
2022/02/17 07:31:34;;;;;;;7.47;3.20;;;13.80;59.80;;;;;;5048805;28;20486;-52
2022/02/17 07:34:00;;;;;;;8.53;1.77;;;13.80;59.60;;;;;;5037567;28;20189;-53
2022/02/17 07:36:26;;;;;;;8.30;2.47;;;14.00;59.40;;;;;;5049522;28;20694;-52
2022/02/17 07:38:51;;;;;;;6.90;2.43;;;14.10;58.90;;;;;;5043176;28;20224;-51
2022/02/17 07:41:17;;;;;;;7.47;2.03;;;14.20;58.60;;;;;;5050333;28;20220;-50
2022/02/17 07:43:43;;;;;;;6.47;1.97;;;14.30;58.30;;;;;;5038328;28;20189;-53
2022/02/17 07:46:09;;;;;;;11.70;2.33;;;14.30;58.30;;;;;;5038111;28;20242;-53
2022/02/17 07:48:35;;;;;;;4.43;1.70;;;14.20;58.30;;;;;;5045189;28;20525;-53
2022/02/17 07:51:01;;;;;;;6.93;1.83;;;14.10;58.40;;;;;;5048729;28;20532;-53
2022/02/17 07:53:26;;;;;;;3.47;1.47;;;14.20;58.70;;;;;;5045262;28;20207;-52
2022/02/17 07:55:52;;;;;;;8.97;1.40;;;14.40;58.10;;;;;;5047059;28;20193;-53
2022/02/17 07:58:17;;;;;;;5.40;1.70;;;14.60;58.20;;;;;;5053352;28;20656;-50
2022/02/17 08:00:46;;;;;;;3.93;1.50;;;14.70;57.20;;;;;;5043136;28;20195;-52
2022/02/17 08:03:13;;;;;;;6.50;2.80;;;14.50;56.60;;;;;;5046688;28;20339;-53
2022/02/17 08:05:39;;;;;;;3.50;1.33;;;14.50;57.00;;;;;;5049108;28;20446;-52
2022/02/17 08:08:06;;;;;;;9.73;3.40;;;14.50;57.20;;;;;;5044837;28;20853;-49
2022/02/17 08:10:32;;;;;;;3.77;1.33;;;14.40;56.20;;;;;;5044185;28;20431;-51
2022/02/17 08:12:58;;;;;;;5.93;1.60;;;14.50;56.10;;;;;;5052503;28;20498;-54
2022/02/17 08:15:23;;;;;;;5.80;1.80;;;14.70;55.90;;;;;;5054041;28;20516;-50
2022/02/17 08:17:49;;;;;;;7.60;2.40;;;15.00;55.80;;;;;;5051524;28;20262;-53
2022/02/17 08:20:14;;;;;;;7.07;2.00;;;14.90;54.70;;;;;;5048868;28;20307;-53
2022/02/17 08:22:48;;;;;;;9.33;2.53;;;14.90;54.70;;;;;;5050906;28;20197;-52
2022/02/17 08:25:13;;;;;;;8.20;1.67;;;15.10;54.50;;;;;;5041936;28;20185;-51
2022/02/17 08:27:39;;;;;;;10.87;2.57;;;15.10;54.20;;;;;;5046345;28;20835;-52
2022/02/17 08:30:05;;;;;;;6.93;1.87;;;15.20;54.50;;;;;;5040756;28;20248;-51
2022/02/17 08:32:35;;;;;;;6.40;1.93;;;15.30;54.10;;;;;;5051135;28;20642;-53
2022/02/17 08:35:00;;;;;;;3.10;1.30;;;15.50;54.30;;;;;;5051897;28;20439;-50
2022/02/17 08:37:26;;;;;;;8.10;2.27;;;15.40;53.50;;;;;;5041008;28;20916;-52
2022/02/17 08:39:51;;;;;;;4.70;1.80;;;15.10;53.40;;;;;;5053294;28;20228;-53
2022/02/17 08:42:17;;;;;;;5.63;1.80;;;14.90;53.80;;;;;;5042593;28;20201;-53
2022/02/17 08:44:43;;;;;;;7.23;2.33;;;14.80;54.00;;;;;;5045637;28;20204;-50
2022/02/17 08:47:08;;;;;;;4.80;1.80;;;14.70;53.80;;;;;;5052632;28;20203;-53
2022/02/17 08:49:34;;;;;;;5.90;1.60;;;14.80;53.40;;;;;;5051979;28;20203;-53
2022/02/17 08:51:59;;;;;;;5.77;1.83;;;14.70;52.10;;;;;;5042590;28;20239;-50
2022/02/17 08:54:25;;;;;;;2.83;1.57;;;14.50;51.50;;;;;;5050575;28;20242;-50
2022/02/17 08:56:51;;;;;;;5.80;1.70;;;14.10;48.60;;;;;;5038287;28;20276;-53
2022/02/17 08:59:16;;;;;;;4.83;1.97;;;14.20;49.20;;;;;;5040907;28;20656;-51
2022/02/17 09:01:42;;;;;;;6.70;2.40;;;14.30;49.10;;;;;;5048277;28;20188;-52
2022/02/17 09:04:07;;;;;;;10.83;2.27;;;14.40;48.60;;;;;;5049067;28;20202;-51
2022/02/17 09:06:33;;;;;;;8.73;2.37;;;14.40;48.80;;;;;;5049116;28;20197;-52
2022/02/17 09:08:59;;;;;;;7.20;2.37;;;14.60;48.90;;;;;;5036781;28;20287;-51
2022/02/17 09:11:24;;;;;;;10.93;2.33;;;14.70;49.00;;;;;;5035892;28;20212;-53
2022/02/17 09:13:50;;;;;;;10.07;2.43;;;14.70;48.80;;;;;;5048363;28;20196;-53
2022/02/17 09:16:15;;;;;;;9.90;2.33;;;14.80;48.90;;;;;;5044089;28;20189;-53
2022/02/17 09:18:41;;;;;;;7.03;2.47;;;14.80;49.20;;;;;;5049773;28;20198;-54
2022/02/17 09:21:07;;;;;;;10.17;2.00;;;14.90;49.40;;;;;;5050075;28;20280;-54
2022/02/17 09:23:34;;;;;;;7.07;2.10;;;15.10;49.30;;;;;;5045459;28;20212;-50
2022/02/17 09:25:59;;;;;;;7.27;2.50;;;14.90;48.90;;;;;;5043483;28;20193;-53
2022/02/17 09:28:25;;;;;;;7.83;2.80;;;15.00;48.40;;;;;;5045107;28;20989;-54
2022/02/17 09:30:50;;;;;;;13.37;4.07;;;15.00;47.90;;;;;;5050789;28;20348;-52
2022/02/17 09:33:16;;;;;;;10.17;3.10;;;15.00;48.20;;;;;;5049872;28;20224;-53
2022/02/17 09:35:42;;;;;;;14.40;2.83;;;15.00;47.90;;;;;;5043508;28;20212;-53
2022/02/17 09:38:07;;;;;;;7.90;3.10;;;14.80;47.50;;;;;;5046150;28;20184;-55
2022/02/17 09:40:33;;;;;;;11.03;2.40;;;14.80;48.10;;;;;;5048067;28;20649;-54
2022/02/17 09:42:59;;;;;;;9.03;2.77;;;14.70;48.10;;;;;;5046755;28;20223;-53
2022/02/17 09:45:25;;;;;;;11.67;2.57;;;14.60;47.80;;;;;;5048733;28;20214;-54
2022/02/17 09:47:51;;;;;;;13.17;2.73;;;14.80;48.70;;;;;;5046448;28;20220;-53
2022/02/17 09:50:17;;;;;;;12.03;2.90;;;14.60;48.80;;;;;;5042125;28;20543;-51
2022/02/17 09:52:44;;;;;;;16.43;2.57;;;14.40;49.20;;;;;;5041856;28;20216;-53
2022/02/17 09:55:16;;;;;;;8.87;2.77;;;14.60;49.70;;;;;;5045404;28;20197;-53
2022/02/17 09:57:42;;;;;;;9.37;2.37;;;14.50;49.90;;;;;;5035127;28;20455;-59
2022/02/17 10:00:12;;;;;;;14.37;3.13;;;14.40;50.30;;;;;;5038670;28;20522;-58
2022/02/17 10:02:38;;;;;;;7.37;2.73;;;14.60;49.90;;;;;;5039145;28;20443;-56
2022/02/17 10:05:06;;;;;;;12.00;3.37;;;14.70;49.70;;;;;;5037909;28;20438;-58
2022/02/17 10:07:34;;;;;;;7.53;2.87;;;14.70;49.80;;;;;;5042046;28;20479;-58
2022/02/17 10:10:23;;;;;;;14.33;3.13;;;14.60;49.40;;;;;;5041413;28;20445;-58
2022/02/17 10:12:59;;;;;;;12.10;2.53;;;14.30;50.20;;;;;;5042650;28;20471;-57
2022/02/17 10:15:36;;;;;;;9.43;2.77;;;14.40;50.00;;;;;;5034090;28;20443;-58
2022/02/17 10:18:14;;;;;;;12.50;3.00;;;14.20;49.10;;;;;;5038911;28;20926;-57
2022/02/17 10:21:02;;;;;;;13.93;2.60;;;14.00;48.60;;;;;;5039909;28;20435;-58
2022/02/17 10:23:31;;;;;;;9.30;3.30;;;14.30;49.00;;;;;;5041929;28;20942;-58
2022/02/17 10:25:58;;;;;;;10.27;2.80;;;14.40;49.10;;;;;;5040575;28;20926;-57
2022/02/17 10:28:25;;;;;;;18.37;5.37;;;14.30;48.30;;;;;;5039493;28;20482;-60
2022/02/17 10:30:51;;;;;;;14.73;3.17;;;14.30;49.10;;;;;;5044536;28;20594;-59
2022/02/17 10:33:16;;;;;;;8.73;2.50;;;14.10;49.40;;;;;;5045916;28;20522;-57
2022/02/17 10:35:52;;;;;;;8.50;2.30;;;13.80;50.30;;;;;;5049260;28;20279;-57
2022/02/17 10:38:19;;;;;;;11.33;2.67;;;13.80;50.80;;;;;;5044143;28;20665;-55
2022/02/17 10:40:51;;;;;;;10.43;2.60;;;13.50;50.50;;;;;;5049395;28;20553;-57
2022/02/17 10:43:16;;;;;;;5.60;1.80;;;13.50;51.10;;;;;;5041973;28;20432;-57
2022/02/17 10:45:48;;;;;;;12.87;2.30;;;13.90;51.70;;;;;;5038396;28;20442;-58
2022/02/17 10:48:21;;;;;;;10.37;2.23;;;14.10;51.30;;;;;;5044914;28;20765;-58
2022/02/17 10:51:03;;;;;;;5.67;2.80;;;14.00;51.30;;;;;;5038741;28;20439;-57
2022/02/17 10:53:30;;;;;;;11.60;2.97;;;14.50;51.70;;;;;;5042712;28;20443;-57
2022/02/17 10:56:01;;;;;;;11.70;2.73;;;14.90;51.50;;;;;;5043999;28;20470;-57
2022/02/17 10:58:30;;;;;;;12.33;2.60;;;15.40;50.40;;;;;;5044982;28;20436;-58
2022/02/17 11:01:01;;;;;;;6.40;2.00;;;15.40;49.50;;;;;;5046868;28;20514;-57
2022/02/17 11:03:34;;;;;;;10.60;3.53;;;15.50;49.90;;;;;;5045574;28;20522;-57
2022/02/17 11:06:02;;;;;;;5.03;1.83;;;15.50;48.50;;;;;;5035480;28;20525;-57
2022/02/17 11:08:27;;;;;;;7.50;2.53;;;15.30;48.10;;;;;;5043259;28;20909;-57
2022/02/17 11:10:53;;;;;;;5.83;1.97;;;15.20;47.90;;;;;;5048337;28;20427;-57
2022/02/17 11:13:22;;;;;;;7.00;2.40;;;15.10;47.30;;;;;;5047630;28;20208;-57
2022/02/17 11:15:48;;;;;;;10.50;2.33;;;15.10;47.80;;;;;;5046070;28;20443;-57
2022/02/17 11:18:18;;;;;;;12.73;2.40;;;15.20;48.20;;;;;;5047085;28;20438;-57
2022/02/17 11:20:46;;;;;;;6.07;1.93;;;15.10;47.30;;;;;;5048918;28;20772;-57
2022/02/17 11:23:14;;;;;;;7.50;2.60;;;15.30;47.50;;;;;;5039619;28;20434;-57
2022/02/17 11:25:41;;;;;;;9.40;2.47;;;15.30;46.10;;;;;;5041371;28;20491;-57
2022/02/17 11:28:11;;;;;;;9.33;2.33;;;15.20;45.30;;;;;;5045425;28;20519;-57
2022/02/17 11:30:39;;;;;;;9.50;2.60;;;15.00;44.50;;;;;;5040015;28;20945;-57
2022/02/17 11:33:23;;;;;;;7.60;2.40;;;15.20;45.10;;;;;;5041041;28;20947;-57
2022/02/17 11:35:50;;;;;;;6.50;2.67;;;15.50;44.90;;;;;;5046579;28;20436;-57
2022/02/17 11:38:39;;;;;;;10.87;3.17;;;15.60;43.70;;;;;;5051737;28;21107;-57
2022/02/17 11:41:14;;;;;;;8.60;2.40;;;15.60;43.40;;;;;;5036275;28;20443;-57
2022/02/17 11:43:45;;;;;;;10.87;2.90;;;15.50;42.90;;;;;;5045639;28;20446;-57
2022/02/17 11:46:14;;;;;;;6.33;2.03;;;15.80;43.40;;;;;;5036698;28;20446;-57
2022/02/17 11:48:39;;;;;;;15.80;2.90;;;15.90;41.50;;;;;;5043598;28;20617;-57
2022/02/17 11:51:15;;;;;;;6.00;2.40;;;16.00;41.70;;;;;;5041832;28;20519;-57
2022/02/17 11:53:42;;;;;;;7.37;2.20;;;16.10;41.60;;;;;;5048218;28;20203;-57
2022/02/17 11:56:17;;;;;;;8.30;2.47;;;15.80;39.60;;;;;;5042435;28;20428;-56
2022/02/17 11:58:48;;;;;;;5.63;1.90;;;15.60;39.20;;;;;;5040085;28;20539;-57
2022/02/17 12:01:26;;;;;;;8.50;2.40;;;15.70;39.90;;;;;;5047760;28;21051;-57
2022/02/17 12:03:55;;;;;;;7.67;2.17;;;16.00;40.00;;;;;;5047818;28;20923;-57
2022/02/17 12:06:41;;;;;;;9.03;2.03;;;16.00;39.90;;;;;;5047741;28;20442;-57
2022/02/17 12:09:07;;;;;;;3.73;2.90;;;16.20;39.50;;;;;;5040085;28;20571;-57
2022/02/17 12:11:41;;;;;;;7.20;2.90;;;16.20;39.20;;;;;;5042097;28;20442;-58
2022/02/17 12:14:08;;;;;;;4.73;2.30;;;16.30;39.60;;;;;;5038501;28;20442;-56
2022/02/17 12:16:34;;;;;;;7.13;1.93;;;15.90;38.40;;;;;;5050103;28;20470;-57
2022/02/17 12:19:15;;;;;;;7.53;2.07;;;15.90;38.40;;;;;;5046260;28;20966;-57
2022/02/17 12:21:41;;;;;;;5.60;1.70;;;16.00;39.40;;;;;;5037531;28;20935;-57
2022/02/17 12:24:13;;;;;;;8.30;2.10;;;16.00;38.70;;;;;;5047255;28;20497;-57
2022/02/17 12:26:48;;;;;;;8.40;2.20;;;16.00;39.20;;;;;;5038487;28;20943;-56
2022/02/17 12:29:32;;;;;;;11.87;3.00;;;16.10;39.50;;;;;;5036859;28;20594;-56
2022/02/17 12:31:58;;;;;;;8.10;3.17;;;16.10;39.30;;;;;;5046622;28;20821;-57
2022/02/17 12:34:28;;;;;;;10.73;3.33;;;16.50;39.70;;;;;;5048197;28;20435;-58
2022/02/17 12:36:54;;;;;;;6.93;2.40;;;16.50;39.30;;;;;;5042453;28;20835;-58
2022/02/17 12:39:25;;;;;;;7.77;2.37;;;16.50;39.00;;;;;;5043944;28;20439;-57
2022/02/17 12:42:02;;;;;;;4.90;2.20;;;16.20;39.00;;;;;;5039010;28;20463;-58
2022/02/17 12:44:30;;;;;;;6.20;1.70;;;15.90;38.60;;;;;;5041035;28;20519;-58
2022/02/17 12:47:00;;;;;;;6.80;2.33;;;15.90;38.90;;;;;;5042679;28;20436;-58